<?xml version="1.0" encoding="UTF-8" standalone="no" ?>
<gpx xmlns="http://www.topografix.com/GPX/1/1" xmlns:xsi="http://www.w3.org/2001/XMLSchema-instance" xsi:schemaLocation="http://www.topografix.com/GPX/1/1 http://www.topografix.com/GPX/1/1/gpx.xsd" version="1.1" creator="VisuGPX - https://www.visugpx.com">
  <metadata>
    <name>secteur Saverne - Dabo - Petite Pierre</name>
  </metadata>
  <trk>
    <name><![CDATA[secteur Saverne - Dabo - Petite Pierre_1]]></name>
    <trkseg>
      <trkpt lat="48.65366" lon="7.23579">
        <ele>470.4</ele>
        <time>2020-08-27T12:02:05Z</time>
      </trkpt>
      <trkpt lat="48.65366" lon="7.23579">
        <ele>470.4</ele>
        <time>2020-08-27T12:02:05Z</time>
      </trkpt>
      <trkpt lat="48.65366" lon="7.23579">
        <ele>470.4</ele>
        <time>2020-08-27T12:02:05Z</time>
      </trkpt>
      <trkpt lat="48.65366" lon="7.23579">
        <ele>470.4</ele>
        <time>2020-08-27T12:02:05Z</time>
      </trkpt>
      <trkpt lat="48.65366" lon="7.23579">
        <ele>470.4</ele>
        <time>2020-08-27T12:02:05Z</time>
      </trkpt>
      <trkpt lat="48.65366" lon="7.23579">
        <ele>470.4</ele>
        <time>2020-08-27T12:02:05Z</time>
      </trkpt>
      <trkpt lat="48.65366" lon="7.23579">
        <ele>470.4</ele>
        <time>2020-08-27T12:02:05Z</time>
      </trkpt>
      <trkpt lat="48.65366" lon="7.23579">
        <ele>470.4</ele>
        <time>2020-08-27T12:02:05Z</time>
      </trkpt>
      <trkpt lat="48.65366" lon="7.23579">
        <ele>470.4</ele>
        <time>2020-08-27T12:02:05Z</time>
      </trkpt>
      <trkpt lat="48.65364" lon="7.23572">
        <ele>468.7</ele>
        <time>2020-08-27T12:02:15Z</time>
      </trkpt>
      <trkpt lat="48.65362" lon="7.23565">
        <ele>467.7</ele>
        <time>2020-08-27T12:02:17Z</time>
      </trkpt>
      <trkpt lat="48.6536" lon="7.23557">
        <ele>466.3</ele>
        <time>2020-08-27T12:02:19Z</time>
      </trkpt>
      <trkpt lat="48.65359" lon="7.23547">
        <ele>465.5</ele>
        <time>2020-08-27T12:02:21Z</time>
      </trkpt>
      <trkpt lat="48.65363" lon="7.23535">
        <ele>464.1</ele>
        <time>2020-08-27T12:02:23Z</time>
      </trkpt>
      <trkpt lat="48.65371" lon="7.23528">
        <ele>463</ele>
        <time>2020-08-27T12:02:25Z</time>
      </trkpt>
      <trkpt lat="48.6538" lon="7.23524">
        <ele>462.1</ele>
        <time>2020-08-27T12:02:27Z</time>
      </trkpt>
      <trkpt lat="48.65388" lon="7.2352">
        <ele>461.7</ele>
        <time>2020-08-27T12:02:29Z</time>
      </trkpt>
      <trkpt lat="48.65394" lon="7.23515">
        <ele>461.9</ele>
        <time>2020-08-27T12:02:31Z</time>
      </trkpt>
      <trkpt lat="48.65398" lon="7.23509">
        <ele>462.5</ele>
        <time>2020-08-27T12:02:33Z</time>
      </trkpt>
      <trkpt lat="48.65399" lon="7.23499">
        <ele>463.5</ele>
        <time>2020-08-27T12:02:36Z</time>
      </trkpt>
      <trkpt lat="48.65399" lon="7.23492">
        <ele>464.1</ele>
        <time>2020-08-27T12:02:38Z</time>
      </trkpt>
      <trkpt lat="48.65399" lon="7.23484">
        <ele>464.2</ele>
        <time>2020-08-27T12:02:40Z</time>
      </trkpt>
      <trkpt lat="48.65399" lon="7.23477">
        <ele>464.2</ele>
        <time>2020-08-27T12:02:42Z</time>
      </trkpt>
      <trkpt lat="48.654" lon="7.23484">
        <ele>466.3</ele>
        <time>2020-08-27T12:02:52Z</time>
      </trkpt>
      <trkpt lat="48.654" lon="7.23491">
        <ele>466.7</ele>
        <time>2020-08-27T12:02:54Z</time>
      </trkpt>
      <trkpt lat="48.654" lon="7.235">
        <ele>466.8</ele>
        <time>2020-08-27T12:02:56Z</time>
      </trkpt>
      <trkpt lat="48.65401" lon="7.23508">
        <ele>467</ele>
        <time>2020-08-27T12:02:58Z</time>
      </trkpt>
      <trkpt lat="48.65404" lon="7.23514">
        <ele>468</ele>
        <time>2020-08-27T12:03:00Z</time>
      </trkpt>
      <trkpt lat="48.65409" lon="7.23515">
        <ele>467.9</ele>
        <time>2020-08-27T12:03:02Z</time>
      </trkpt>
      <trkpt lat="48.65413" lon="7.23513">
        <ele>468</ele>
        <time>2020-08-27T12:03:04Z</time>
      </trkpt>
      <trkpt lat="48.65411" lon="7.23506">
        <ele>467.9</ele>
        <time>2020-08-27T12:03:08Z</time>
      </trkpt>
      <trkpt lat="48.65406" lon="7.23506">
        <ele>468.2</ele>
        <time>2020-08-27T12:03:10Z</time>
      </trkpt>
      <trkpt lat="48.65401" lon="7.23505">
        <ele>468.2</ele>
        <time>2020-08-27T12:03:12Z</time>
      </trkpt>
      <trkpt lat="48.65398" lon="7.235">
        <ele>467.3</ele>
        <time>2020-08-27T12:03:14Z</time>
      </trkpt>
      <trkpt lat="48.65398" lon="7.23492">
        <ele>466.8</ele>
        <time>2020-08-27T12:03:16Z</time>
      </trkpt>
      <trkpt lat="48.65399" lon="7.23482">
        <ele>466</ele>
        <time>2020-08-27T12:03:18Z</time>
      </trkpt>
      <trkpt lat="48.654" lon="7.2347">
        <ele>465.6</ele>
        <time>2020-08-27T12:03:20Z</time>
      </trkpt>
      <trkpt lat="48.65399" lon="7.23457">
        <ele>465</ele>
        <time>2020-08-27T12:03:22Z</time>
      </trkpt>
      <trkpt lat="48.65399" lon="7.23442">
        <ele>463.2</ele>
        <time>2020-08-27T12:03:24Z</time>
      </trkpt>
      <trkpt lat="48.654" lon="7.23429">
        <ele>462.8</ele>
        <time>2020-08-27T12:03:26Z</time>
      </trkpt>
      <trkpt lat="48.654" lon="7.23416">
        <ele>462.4</ele>
        <time>2020-08-27T12:03:28Z</time>
      </trkpt>
      <trkpt lat="48.65401" lon="7.23402">
        <ele>462.2</ele>
        <time>2020-08-27T12:03:30Z</time>
      </trkpt>
      <trkpt lat="48.65403" lon="7.23389">
        <ele>461.9</ele>
        <time>2020-08-27T12:03:32Z</time>
      </trkpt>
      <trkpt lat="48.65404" lon="7.23376">
        <ele>461.3</ele>
        <time>2020-08-27T12:03:34Z</time>
      </trkpt>
      <trkpt lat="48.65405" lon="7.23365">
        <ele>460.9</ele>
        <time>2020-08-27T12:03:36Z</time>
      </trkpt>
      <trkpt lat="48.65407" lon="7.23358">
        <ele>461.1</ele>
        <time>2020-08-27T12:03:41Z</time>
      </trkpt>
      <trkpt lat="48.65412" lon="7.23358">
        <ele>463.1</ele>
        <time>2020-08-27T12:03:47Z</time>
      </trkpt>
      <trkpt lat="48.65416" lon="7.2336">
        <ele>464.4</ele>
        <time>2020-08-27T12:03:52Z</time>
      </trkpt>
      <trkpt lat="48.65421" lon="7.2336">
        <ele>466.5</ele>
        <time>2020-08-27T12:03:57Z</time>
      </trkpt>
      <trkpt lat="48.65426" lon="7.23358">
        <ele>467.3</ele>
        <time>2020-08-27T12:04:02Z</time>
      </trkpt>
      <trkpt lat="48.65431" lon="7.23356">
        <ele>467.5</ele>
        <time>2020-08-27T12:04:11Z</time>
      </trkpt>
      <trkpt lat="48.65435" lon="7.2335">
        <ele>468.2</ele>
        <time>2020-08-27T12:04:16Z</time>
      </trkpt>
      <trkpt lat="48.65439" lon="7.23346">
        <ele>468.8</ele>
        <time>2020-08-27T12:04:20Z</time>
      </trkpt>
      <trkpt lat="48.65443" lon="7.23342">
        <ele>469.3</ele>
        <time>2020-08-27T12:04:24Z</time>
      </trkpt>
      <trkpt lat="48.65447" lon="7.23338">
        <ele>470.3</ele>
        <time>2020-08-27T12:04:29Z</time>
      </trkpt>
      <trkpt lat="48.65451" lon="7.23333">
        <ele>472</ele>
        <time>2020-08-27T12:04:35Z</time>
      </trkpt>
      <trkpt lat="48.65454" lon="7.23339">
        <ele>472.9</ele>
        <time>2020-08-27T12:04:41Z</time>
      </trkpt>
      <trkpt lat="48.65454" lon="7.23346">
        <ele>473.6</ele>
        <time>2020-08-27T12:04:47Z</time>
      </trkpt>
      <trkpt lat="48.65455" lon="7.23353">
        <ele>476</ele>
        <time>2020-08-27T12:04:54Z</time>
      </trkpt>
      <trkpt lat="48.6546" lon="7.23355">
        <ele>477.9</ele>
        <time>2020-08-27T12:05:00Z</time>
      </trkpt>
      <trkpt lat="48.65463" lon="7.23361">
        <ele>477.7</ele>
        <time>2020-08-27T12:05:06Z</time>
      </trkpt>
      <trkpt lat="48.65464" lon="7.23367">
        <ele>479</ele>
        <time>2020-08-27T12:05:11Z</time>
      </trkpt>
      <trkpt lat="48.65465" lon="7.23375">
        <ele>480.7</ele>
        <time>2020-08-27T12:05:16Z</time>
      </trkpt>
      <trkpt lat="48.65467" lon="7.23383">
        <ele>481.1</ele>
        <time>2020-08-27T12:05:20Z</time>
      </trkpt>
      <trkpt lat="48.65468" lon="7.23389">
        <ele>481.6</ele>
        <time>2020-08-27T12:05:24Z</time>
      </trkpt>
      <trkpt lat="48.6547" lon="7.23397">
        <ele>481.6</ele>
        <time>2020-08-27T12:05:29Z</time>
      </trkpt>
      <trkpt lat="48.65472" lon="7.23404">
        <ele>481.7</ele>
        <time>2020-08-27T12:05:34Z</time>
      </trkpt>
      <trkpt lat="48.65474" lon="7.2341">
        <ele>482.4</ele>
        <time>2020-08-27T12:05:41Z</time>
      </trkpt>
      <trkpt lat="48.65477" lon="7.23418">
        <ele>481.8</ele>
        <time>2020-08-27T12:05:54Z</time>
      </trkpt>
      <trkpt lat="48.65478" lon="7.23425">
        <ele>482.1</ele>
        <time>2020-08-27T12:05:57Z</time>
      </trkpt>
      <trkpt lat="48.6548" lon="7.23432">
        <ele>482</ele>
        <time>2020-08-27T12:06:00Z</time>
      </trkpt>
      <trkpt lat="48.65482" lon="7.2344">
        <ele>480.9</ele>
        <time>2020-08-27T12:06:03Z</time>
      </trkpt>
      <trkpt lat="48.65487" lon="7.23448">
        <ele>479.9</ele>
        <time>2020-08-27T12:06:06Z</time>
      </trkpt>
      <trkpt lat="48.6549" lon="7.23453">
        <ele>479.5</ele>
        <time>2020-08-27T12:06:08Z</time>
      </trkpt>
      <trkpt lat="48.65493" lon="7.23458">
        <ele>479.2</ele>
        <time>2020-08-27T12:06:10Z</time>
      </trkpt>
      <trkpt lat="48.65496" lon="7.23463">
        <ele>478.8</ele>
        <time>2020-08-27T12:06:12Z</time>
      </trkpt>
      <trkpt lat="48.655" lon="7.23469">
        <ele>478.2</ele>
        <time>2020-08-27T12:06:14Z</time>
      </trkpt>
      <trkpt lat="48.65502" lon="7.23474">
        <ele>478.2</ele>
        <time>2020-08-27T12:06:16Z</time>
      </trkpt>
      <trkpt lat="48.65507" lon="7.23481">
        <ele>479</ele>
        <time>2020-08-27T12:06:19Z</time>
      </trkpt>
      <trkpt lat="48.65512" lon="7.23487">
        <ele>479</ele>
        <time>2020-08-27T12:06:22Z</time>
      </trkpt>
      <trkpt lat="48.65516" lon="7.23491">
        <ele>478.9</ele>
        <time>2020-08-27T12:06:24Z</time>
      </trkpt>
      <trkpt lat="48.65522" lon="7.23497">
        <ele>478.7</ele>
        <time>2020-08-27T12:06:27Z</time>
      </trkpt>
      <trkpt lat="48.65526" lon="7.23501">
        <ele>479.1</ele>
        <time>2020-08-27T12:06:29Z</time>
      </trkpt>
      <trkpt lat="48.6553" lon="7.23504">
        <ele>479.1</ele>
        <time>2020-08-27T12:06:31Z</time>
      </trkpt>
      <trkpt lat="48.65534" lon="7.23508">
        <ele>479.2</ele>
        <time>2020-08-27T12:06:33Z</time>
      </trkpt>
      <trkpt lat="48.65539" lon="7.23514">
        <ele>479.3</ele>
        <time>2020-08-27T12:06:36Z</time>
      </trkpt>
      <trkpt lat="48.65544" lon="7.23521">
        <ele>479.2</ele>
        <time>2020-08-27T12:06:39Z</time>
      </trkpt>
      <trkpt lat="48.65548" lon="7.23526">
        <ele>479.4</ele>
        <time>2020-08-27T12:06:41Z</time>
      </trkpt>
      <trkpt lat="48.65552" lon="7.23531">
        <ele>478.9</ele>
        <time>2020-08-27T12:06:43Z</time>
      </trkpt>
      <trkpt lat="48.65557" lon="7.23536">
        <ele>478.1</ele>
        <time>2020-08-27T12:06:45Z</time>
      </trkpt>
      <trkpt lat="48.65562" lon="7.23541">
        <ele>477.5</ele>
        <time>2020-08-27T12:06:47Z</time>
      </trkpt>
      <trkpt lat="48.65568" lon="7.23545">
        <ele>477.1</ele>
        <time>2020-08-27T12:06:49Z</time>
      </trkpt>
      <trkpt lat="48.65574" lon="7.23547">
        <ele>476.8</ele>
        <time>2020-08-27T12:06:51Z</time>
      </trkpt>
      <trkpt lat="48.65581" lon="7.23549">
        <ele>476.7</ele>
        <time>2020-08-27T12:06:53Z</time>
      </trkpt>
      <trkpt lat="48.65587" lon="7.23551">
        <ele>477.3</ele>
        <time>2020-08-27T12:06:55Z</time>
      </trkpt>
      <trkpt lat="48.65593" lon="7.23554">
        <ele>477.7</ele>
        <time>2020-08-27T12:06:57Z</time>
      </trkpt>
      <trkpt lat="48.65599" lon="7.23556">
        <ele>477.9</ele>
        <time>2020-08-27T12:06:59Z</time>
      </trkpt>
      <trkpt lat="48.65605" lon="7.23559">
        <ele>477.8</ele>
        <time>2020-08-27T12:07:01Z</time>
      </trkpt>
      <trkpt lat="48.65612" lon="7.23561">
        <ele>478</ele>
        <time>2020-08-27T12:07:03Z</time>
      </trkpt>
      <trkpt lat="48.65619" lon="7.23563">
        <ele>478</ele>
        <time>2020-08-27T12:07:05Z</time>
      </trkpt>
      <trkpt lat="48.65625" lon="7.23564">
        <ele>477.8</ele>
        <time>2020-08-27T12:07:07Z</time>
      </trkpt>
      <trkpt lat="48.65632" lon="7.23565">
        <ele>478.2</ele>
        <time>2020-08-27T12:07:09Z</time>
      </trkpt>
      <trkpt lat="48.65639" lon="7.23566">
        <ele>478.2</ele>
        <time>2020-08-27T12:07:11Z</time>
      </trkpt>
      <trkpt lat="48.65645" lon="7.23565">
        <ele>478.6</ele>
        <time>2020-08-27T12:07:13Z</time>
      </trkpt>
      <trkpt lat="48.65651" lon="7.23564">
        <ele>478.7</ele>
        <time>2020-08-27T12:07:15Z</time>
      </trkpt>
      <trkpt lat="48.65657" lon="7.23562">
        <ele>478.6</ele>
        <time>2020-08-27T12:07:17Z</time>
      </trkpt>
      <trkpt lat="48.65662" lon="7.23559">
        <ele>478</ele>
        <time>2020-08-27T12:07:20Z</time>
      </trkpt>
      <trkpt lat="48.65668" lon="7.23556">
        <ele>476.1</ele>
        <time>2020-08-27T12:07:35Z</time>
      </trkpt>
      <trkpt lat="48.65674" lon="7.23556">
        <ele>475.6</ele>
        <time>2020-08-27T12:07:37Z</time>
      </trkpt>
      <trkpt lat="48.65681" lon="7.23556">
        <ele>474.9</ele>
        <time>2020-08-27T12:07:39Z</time>
      </trkpt>
      <trkpt lat="48.65689" lon="7.23557">
        <ele>474</ele>
        <time>2020-08-27T12:07:41Z</time>
      </trkpt>
      <trkpt lat="48.65697" lon="7.23559">
        <ele>473.3</ele>
        <time>2020-08-27T12:07:43Z</time>
      </trkpt>
      <trkpt lat="48.65706" lon="7.2356">
        <ele>472.2</ele>
        <time>2020-08-27T12:07:45Z</time>
      </trkpt>
      <trkpt lat="48.65715" lon="7.23562">
        <ele>471.2</ele>
        <time>2020-08-27T12:07:47Z</time>
      </trkpt>
      <trkpt lat="48.65724" lon="7.23565">
        <ele>470.5</ele>
        <time>2020-08-27T12:07:49Z</time>
      </trkpt>
      <trkpt lat="48.65732" lon="7.23569">
        <ele>469.9</ele>
        <time>2020-08-27T12:07:51Z</time>
      </trkpt>
      <trkpt lat="48.65737" lon="7.23575">
        <ele>469</ele>
        <time>2020-08-27T12:07:53Z</time>
      </trkpt>
      <trkpt lat="48.65741" lon="7.23583">
        <ele>468.6</ele>
        <time>2020-08-27T12:07:55Z</time>
      </trkpt>
      <trkpt lat="48.65744" lon="7.2359">
        <ele>468.1</ele>
        <time>2020-08-27T12:07:58Z</time>
      </trkpt>
    </trkseg>
  </trk>
</gpx>